Time;durP1;ratioP1;P1;durP2;ratioP2;P2;SDS_P1;SDS_P2;PMS_P1;PMS_P2;Temp;Humidity;BMP_temperature;BMP_pressure;BME280_temperature;BME280_humidity;BME280_pressure;Samples;Min_cycle;Max_cycle;Signal;HPM_P1;HPM_P2
2022/03/03 00:02:24;;;;;;;81.80;54.80;;;3.30;99.90;;;;;;5073788;28;20402;-86
2022/03/03 00:04:50;;;;;;;81.30;52.90;;;3.30;99.90;;;;;;5090166;28;20398;-86
2022/03/03 00:07:15;;;;;;;83.28;54.30;;;3.30;99.90;;;;;;5090624;28;20440;-85
2022/03/03 00:09:41;;;;;;;82.38;54.13;;;3.20;99.90;;;;;;5090625;28;20398;-85
2022/03/03 00:12:08;;;;;;;82.67;53.57;;;3.30;99.90;;;;;;5090051;28;20402;-85
2022/03/03 00:14:33;;;;;;;79.07;52.72;;;3.20;99.90;;;;;;5090453;28;20900;-85
2022/03/03 00:16:59;;;;;;;82.10;54.43;;;3.20;99.90;;;;;;5073109;28;20399;-85
2022/03/03 00:19:25;;;;;;;79.53;53.00;;;3.10;99.90;;;;;;5072969;28;20429;-85
2022/03/03 00:21:50;;;;;;;78.90;52.67;;;3.10;99.90;;;;;;5090041;28;20530;-86
2022/03/03 00:24:16;;;;;;;78.93;51.20;;;3.10;99.90;;;;;;5073913;28;20398;-85
2022/03/03 00:26:42;;;;;;;76.50;51.53;;;3.10;99.90;;;;;;5073611;28;20455;-85
2022/03/03 00:29:09;;;;;;;76.60;51.65;;;3.10;99.90;;;;;;5089800;28;20809;-86
2022/03/03 00:31:34;;;;;;;78.22;52.75;;;3.20;99.90;;;;;;5072953;28;20935;-86
2022/03/03 00:34:00;;;;;;;74.07;51.67;;;3.10;99.90;;;;;;5074801;28;20410;-85
2022/03/03 00:36:27;;;;;;;76.60;51.93;;;3.10;99.90;;;;;;5074126;28;20908;-85
2022/03/03 00:38:53;;;;;;;76.68;51.47;;;3.10;99.90;;;;;;5090340;28;20426;-86
2022/03/03 00:41:19;;;;;;;80.93;52.90;;;3.20;99.90;;;;;;5073302;28;20804;-85
2022/03/03 00:43:45;;;;;;;76.38;52.03;;;3.20;99.90;;;;;;5072589;28;20405;-86
2022/03/03 00:46:11;;;;;;;77.47;51.93;;;3.20;99.90;;;;;;5073344;28;20756;-85
2022/03/03 00:48:36;;;;;;;78.07;52.55;;;3.20;99.90;;;;;;5089838;28;20413;-86
2022/03/03 00:51:06;;;;;;;79.97;52.93;;;3.10;99.90;;;;;;5089340;28;20459;-85
2022/03/03 00:53:38;;;;;;;78.07;53.70;;;3.10;99.90;;;;;;5088990;28;20409;-85
2022/03/03 00:56:05;;;;;;;80.93;53.77;;;3.10;99.90;;;;;;5076121;28;20434;-86
2022/03/03 00:58:30;;;;;;;79.82;56.13;;;3.00;99.90;;;;;;5075837;28;20404;-86
2022/03/03 01:00:56;;;;;;;80.67;56.13;;;3.10;99.90;;;;;;5076300;28;20400;-85
2022/03/03 01:03:22;;;;;;;87.45;62.55;;;3.00;99.90;;;;;;5076246;28;20407;-85
2022/03/03 01:05:47;;;;;;;93.82;68.28;;;3.00;99.90;;;;;;5076430;28;20499;-84
2022/03/03 01:08:13;;;;;;;117.87;89.20;;;3.00;99.90;;;;;;5093038;28;20400;-85
2022/03/03 01:10:40;;;;;;;122.90;96.57;;;3.00;99.90;;;;;;5092781;28;20890;-85
2022/03/03 01:13:06;;;;;;;131.18;101.93;;;3.00;99.90;;;;;;5076368;28;20396;-85
2022/03/03 01:15:32;;;;;;;135.35;102.82;;;2.90;99.90;;;;;;5091765;28;20401;-85
2022/03/03 01:17:58;;;;;;;130.52;103.85;;;2.90;99.90;;;;;;5092789;28;20404;-85
2022/03/03 01:20:24;;;;;;;131.50;103.65;;;2.90;99.90;;;;;;5091836;28;20439;-84
2022/03/03 01:22:49;;;;;;;120.72;95.95;;;2.90;99.90;;;;;;5092784;28;20763;-85
2022/03/03 01:25:15;;;;;;;118.82;94.30;;;2.90;99.90;;;;;;5075602;28;20403;-85
2022/03/03 01:27:41;;;;;;;118.70;92.03;;;2.90;99.90;;;;;;5075318;28;20408;-85
2022/03/03 01:30:07;;;;;;;116.70;92.32;;;2.80;99.90;;;;;;5088072;28;20784;-85
2022/03/03 01:32:33;;;;;;;124.13;95.53;;;2.80;99.90;;;;;;5088832;28;20814;-85
2022/03/03 01:34:59;;;;;;;130.40;99.27;;;2.80;99.90;;;;;;5089459;28;20422;-85
2022/03/03 01:37:25;;;;;;;133.90;103.55;;;2.80;99.90;;;;;;5088885;28;20787;-84
2022/03/03 01:39:51;;;;;;;139.75;109.18;;;2.70;99.90;;;;;;5088530;28;20453;-85
2022/03/03 01:42:18;;;;;;;135.02;105.93;;;2.70;99.90;;;;;;5071324;28;20406;-85
2022/03/03 01:44:47;;;;;;;130.80;99.28;;;2.60;99.90;;;;;;5088127;28;20421;-85
2022/03/03 01:47:21;;;;;;;118.47;92.43;;;2.60;99.90;;;;;;5088678;28;20409;-86
2022/03/03 01:49:48;;;;;;;102.32;78.10;;;2.60;99.90;;;;;;5088363;28;20410;-85
2022/03/03 01:52:14;;;;;;;114.82;88.00;;;2.60;99.90;;;;;;5071598;28;20405;-85
2022/03/03 01:54:39;;;;;;;122.18;92.97;;;2.60;99.90;;;;;;5066097;28;20399;-85
2022/03/03 01:57:06;;;;;;;122.80;93.37;;;2.60;99.90;;;;;;5068014;28;20529;-84
2022/03/03 01:59:33;;;;;;;120.43;94.97;;;2.50;99.90;;;;;;5051889;28;20424;-85
2022/03/03 02:02:00;;;;;;;117.65;92.60;;;2.50;99.90;;;;;;5051243;28;20407;-85
2022/03/03 02:04:25;;;;;;;118.40;92.97;;;2.40;99.90;;;;;;5069399;28;20391;-86
2022/03/03 02:06:51;;;;;;;115.37;89.77;;;2.40;99.90;;;;;;5051567;28;20403;-85
2022/03/03 02:09:18;;;;;;;104.33;80.03;;;2.40;99.90;;;;;;5067873;28;20408;-85
2022/03/03 02:11:49;;;;;;;98.05;73.22;;;2.40;99.90;;;;;;5051682;28;20439;-85
2022/03/03 02:14:15;;;;;;;96.95;74.30;;;2.40;99.90;;;;;;5068203;28;20404;-85
2022/03/03 02:16:40;;;;;;;90.57;67.53;;;2.40;99.90;;;;;;5051641;28;20411;-85
2022/03/03 02:19:06;;;;;;;93.77;67.67;;;2.40;99.90;;;;;;5051315;28;20467;-86
2022/03/03 02:21:33;;;;;;;95.60;66.77;;;2.40;99.90;;;;;;5068233;28;20766;-84
2022/03/03 02:23:59;;;;;;;89.75;65.50;;;2.30;99.90;;;;;;5051694;28;20407;-84
2022/03/03 02:26:25;;;;;;;88.65;60.90;;;2.30;99.90;;;;;;5052175;28;20414;-84
2022/03/03 02:28:52;;;;;;;81.43;56.28;;;2.30;99.90;;;;;;5072982;28;20497;-84
2022/03/03 02:31:19;;;;;;;79.43;54.40;;;2.30;99.90;;;;;;5088784;28;20417;-84
2022/03/03 02:33:48;;;;;;;82.82;55.30;;;2.30;99.90;;;;;;5071361;28;20410;-84
2022/03/03 02:36:21;;;;;;;79.10;55.63;;;2.40;99.90;;;;;;5071499;28;20447;-85
2022/03/03 02:38:49;;;;;;;85.32;56.40;;;2.40;99.90;;;;;;5071689;28;20437;-84
2022/03/03 02:41:15;;;;;;;81.93;55.40;;;2.40;99.90;;;;;;5070853;28;20413;-85
2022/03/03 02:43:41;;;;;;;83.88;55.88;;;2.40;99.90;;;;;;5087905;28;20502;-84
2022/03/03 02:46:07;;;;;;;80.28;54.30;;;2.50;99.90;;;;;;5087585;28;20409;-85
2022/03/03 02:48:33;;;;;;;76.63;53.55;;;2.50;99.90;;;;;;5088483;28;20409;-84
2022/03/03 02:50:59;;;;;;;76.72;52.00;;;2.50;99.90;;;;;;5071127;28;20776;-84
2022/03/03 02:53:24;;;;;;;75.30;51.78;;;2.50;99.90;;;;;;5088284;28;20409;-84
2022/03/03 02:55:50;;;;;;;77.27;53.47;;;2.50;99.90;;;;;;5089242;28;20548;-84
2022/03/03 02:58:16;;;;;;;75.32;50.58;;;2.50;99.90;;;;;;5071239;28;20398;-84
2022/03/03 03:00:46;;;;;;;74.35;50.92;;;2.50;99.90;;;;;;5087502;28;20444;-84
2022/03/03 03:03:13;;;;;;;71.53;49.30;;;2.50;99.90;;;;;;5070850;28;20490;-85
2022/03/03 03:05:39;;;;;;;68.13;48.97;;;2.50;99.90;;;;;;5087734;28;20410;-84
2022/03/03 03:08:05;;;;;;;68.97;48.83;;;2.50;99.90;;;;;;5071282;28;20402;-85
2022/03/03 03:10:32;;;;;;;69.07;49.33;;;2.50;99.90;;;;;;5088168;28;20405;-85
2022/03/03 03:12:58;;;;;;;67.82;49.17;;;2.50;99.90;;;;;;5087779;28;20908;-85
2022/03/03 03:15:24;;;;;;;67.25;48.67;;;2.50;99.90;;;;;;5088492;28;20402;-84
2022/03/03 03:17:49;;;;;;;65.88;47.90;;;2.40;99.90;;;;;;5088226;28;20527;-85
2022/03/03 03:20:15;;;;;;;69.47;48.30;;;2.30;99.90;;;;;;5070124;28;20430;-86
2022/03/03 03:22:41;;;;;;;67.97;48.40;;;2.30;99.90;;;;;;5088103;28;20402;-84
2022/03/03 03:25:11;;;;;;;71.57;49.65;;;2.30;99.90;;;;;;5087703;28;20398;-83
2022/03/03 03:27:39;;;;;;;68.68;47.33;;;2.20;99.90;;;;;;5087791;28;20410;-85
2022/03/03 03:30:09;;;;;;;69.30;48.55;;;2.20;99.90;;;;;;5084418;28;20441;-85
2022/03/03 03:32:35;;;;;;;67.97;48.25;;;2.20;99.90;;;;;;5076471;28;20419;-85
2022/03/03 03:35:04;;;;;;;66.15;47.78;;;2.10;99.90;;;;;;5078474;28;20398;-85
2022/03/03 03:37:30;;;;;;;64.88;46.38;;;2.20;99.90;;;;;;5070791;28;20441;-85
2022/03/03 03:39:56;;;;;;;61.28;45.20;;;2.10;99.90;;;;;;5057237;28;20439;-85
2022/03/03 03:42:21;;;;;;;64.43;45.78;;;2.20;99.90;;;;;;5054772;28;20407;-85
2022/03/03 03:44:47;;;;;;;64.40;45.53;;;2.20;99.90;;;;;;5053893;28;20469;-85
2022/03/03 03:47:13;;;;;;;62.10;45.22;;;2.20;99.90;;;;;;5076868;28;20412;-85
2022/03/03 03:49:39;;;;;;;60.08;42.25;;;2.20;99.90;;;;;;5074031;28;20933;-86
2022/03/03 03:52:05;;;;;;;57.53;42.23;;;2.20;99.90;;;;;;5091024;28;20405;-85
2022/03/03 03:54:31;;;;;;;58.73;43.67;;;2.20;99.90;;;;;;5091626;28;20496;-85
2022/03/03 03:56:57;;;;;;;59.73;43.70;;;2.20;99.90;;;;;;5090109;28;20402;-85
2022/03/03 03:59:22;;;;;;;61.63;44.58;;;2.10;99.90;;;;;;5090845;28;20426;-84
2022/03/03 04:01:48;;;;;;;60.87;44.97;;;2.10;99.90;;;;;;5074603;28;20394;-85
2022/03/03 04:04:14;;;;;;;62.13;45.00;;;2.10;99.90;;;;;;5085998;28;20418;-85
2022/03/03 04:06:40;;;;;;;65.53;38.38;;;2.10;99.90;;;;;;5072717;28;20159;-85
2022/03/03 04:09:06;;;;;;;58.95;35.15;;;2.10;99.90;;;;;;5071905;28;20048;-84
2022/03/03 04:11:31;;;;;;;62.53;35.75;;;2.10;99.90;;;;;;5072034;28;20479;-84
2022/03/03 04:13:57;;;;;;;60.30;35.63;;;2.00;99.90;;;;;;5071211;28;20127;-84
2022/03/03 04:16:27;;;;;;;63.17;36.38;;;2.00;99.90;;;;;;5055135;28;20406;-84
2022/03/03 04:18:52;;;;;;;;;;;2.00;99.90;;;;;;5071525;28;20079;-84
2022/03/03 04:21:18;;;;;;;54.75;33.33;;;2.00;99.90;;;;;;5071343;28;19974;-84
2022/03/03 04:23:44;;;;;;;65.57;37.83;;;2.00;99.90;;;;;;5071281;28;20084;-84
2022/03/03 04:26:09;;;;;;;63.67;35.88;;;2.10;99.90;;;;;;5071244;28;20040;-84
2022/03/03 04:28:36;;;;;;;53.50;32.60;;;2.00;99.90;;;;;;5074095;28;20051;-85
2022/03/03 04:31:03;;;;;;;56.88;32.53;;;2.00;99.90;;;;;;5092046;28;20067;-84
2022/03/03 04:33:29;;;;;;;58.97;33.72;;;2.10;99.90;;;;;;5091188;28;20047;-84
2022/03/03 04:35:56;;;;;;;57.42;34.25;;;2.00;99.90;;;;;;5091183;28;20094;-84
2022/03/03 04:38:22;;;;;;;58.20;35.42;;;2.00;99.90;;;;;;5074123;28;20044;-85
2022/03/03 04:40:47;;;;;;;56.72;33.78;;;2.00;99.90;;;;;;5090870;28;20055;-85
2022/03/03 04:43:13;;;;;;;58.95;35.50;;;2.00;99.90;;;;;;5090585;28;20565;-84
2022/03/03 04:45:38;;;;;;;56.90;33.50;;;2.00;99.90;;;;;;5091031;28;20093;-84
2022/03/03 04:48:04;;;;;;;58.50;34.55;;;2.00;99.90;;;;;;5090754;28;20036;-84
2022/03/03 04:50:30;;;;;;;61.45;34.60;;;2.00;99.90;;;;;;5091123;28;20127;-84
2022/03/03 04:52:56;;;;;;;59.75;37.25;;;1.90;99.90;;;;;;5090131;28;20697;-84
2022/03/03 04:55:22;;;;;;;64.28;35.72;;;1.90;99.90;;;;;;5074018;28;20048;-84
2022/03/03 04:57:48;;;;;;;57.72;35.00;;;1.90;99.90;;;;;;5073856;28;20081;-84
2022/03/03 05:00:14;;;;;;;62.80;36.08;;;1.90;99.90;;;;;;5073434;28;20209;-85
2022/03/03 05:02:40;;;;;;;60.47;35.53;;;1.80;99.90;;;;;;5073694;28;20044;-84
2022/03/03 05:05:06;;;;;;;60.00;35.80;;;1.80;99.90;;;;;;5091036;28;20051;-84
2022/03/03 05:07:32;;;;;;;63.13;36.47;;;1.80;99.90;;;;;;5090596;28;20425;-84
2022/03/03 05:09:58;;;;;;;62.40;35.65;;;1.80;99.90;;;;;;5073396;28;20043;-84
2022/03/03 05:12:23;;;;;;;62.10;34.72;;;1.70;99.90;;;;;;5073662;28;20048;-85
2022/03/03 05:14:49;;;;;;;58.65;34.40;;;1.70;99.90;;;;;;5090439;28;20081;-84
2022/03/03 05:17:14;;;;;;;63.35;36.95;;;1.70;99.90;;;;;;5073572;28;20134;-84
2022/03/03 05:19:40;;;;;;;70.03;38.78;;;1.60;99.90;;;;;;5073699;28;20048;-85
2022/03/03 05:22:06;;;;;;;69.43;39.70;;;1.60;99.90;;;;;;5091383;28;20054;-84
2022/03/03 05:24:31;;;;;;;68.55;38.30;;;1.70;99.90;;;;;;5074183;28;20044;-84
2022/03/03 05:26:57;;;;;;;69.47;40.65;;;1.60;99.90;;;;;;5091258;28;20051;-84
2022/03/03 05:29:22;;;;;;;68.35;37.63;;;1.70;99.90;;;;;;5073846;28;20136;-84
2022/03/03 05:31:48;;;;;;;70.63;39.80;;;1.70;99.90;;;;;;5073903;28;20047;-84
2022/03/03 05:34:14;;;;;;;73.57;39.47;;;1.60;99.90;;;;;;5074210;28;20072;-84
2022/03/03 05:36:41;;;;;;;68.95;38.17;;;1.60;99.90;;;;;;5074720;28;20044;-84
2022/03/03 05:39:08;;;;;;;67.07;38.10;;;1.60;99.90;;;;;;5078996;28;20049;-84
2022/03/03 05:41:34;;;;;;;74.13;40.70;;;1.60;99.90;;;;;;5070827;28;20048;-84
2022/03/03 05:44:00;;;;;;;70.43;40.08;;;1.70;99.90;;;;;;5071128;28;20068;-85
2022/03/03 05:46:26;;;;;;;75.35;39.75;;;1.70;99.90;;;;;;5071105;28;20044;-83
2022/03/03 05:48:52;;;;;;;74.82;39.33;;;1.70;99.90;;;;;;5070632;28;20040;-84
2022/03/03 05:51:19;;;;;;;74.75;40.65;;;1.60;99.90;;;;;;5054517;28;20123;-85
2022/03/03 05:53:45;;;;;;;76.47;41.13;;;1.60;99.90;;;;;;5071222;28;20505;-84
2022/03/03 05:56:14;;;;;;;73.32;41.28;;;1.60;99.90;;;;;;5070294;28;20083;-85
2022/03/03 05:58:42;;;;;;;79.22;41.05;;;1.60;99.90;;;;;;5053302;28;20040;-84
2022/03/03 06:01:10;;;;;;;76.88;41.40;;;1.60;99.90;;;;;;5069662;28;20107;-84
2022/03/03 06:03:36;;;;;;;75.93;42.33;;;1.60;99.90;;;;;;5069992;28;20495;-84
2022/03/03 06:06:25;;;;;;;82.28;44.13;;;1.60;99.90;;;;;;5070905;28;20044;-84
2022/03/03 06:08:53;;;;;;;82.15;44.13;;;1.60;99.90;;;;;;5053690;28;20078;-84
2022/03/03 06:11:21;;;;;;;75.97;41.40;;;1.60;99.90;;;;;;5054242;28;20515;-84
2022/03/03 06:13:48;;;;;;;79.68;41.92;;;1.60;99.90;;;;;;5071201;28;20567;-84
2022/03/03 06:16:20;;;;;;;77.35;41.80;;;1.60;99.90;;;;;;5072074;28;20044;-85
2022/03/03 06:18:47;;;;;;;79.13;43.22;;;1.60;99.90;;;;;;5070920;28;20419;-85
2022/03/03 06:21:17;;;;;;;79.40;42.40;;;1.60;99.90;;;;;;5072765;28;20380;-85
2022/03/03 06:23:43;;;;;;;82.13;43.22;;;1.70;99.90;;;;;;5055302;28;20044;-84
2022/03/03 06:26:18;;;;;;;85.30;46.50;;;1.60;99.90;;;;;;5072056;28;20406;-84
2022/03/03 06:28:44;;;;;;;76.45;42.10;;;1.60;99.90;;;;;;5058004;28;20051;-85
2022/03/03 06:31:10;;;;;;;78.93;43.38;;;1.60;99.90;;;;;;5091696;28;20056;-84
2022/03/03 06:33:36;;;;;;;78.40;43.08;;;1.60;99.90;;;;;;5092728;28;20044;-84
2022/03/03 06:36:03;;;;;;;85.45;44.38;;;1.60;99.90;;;;;;5092598;28;20557;-85
2022/03/03 06:38:29;;;;;;;79.25;41.47;;;1.60;99.90;;;;;;5092278;28;20142;-84
2022/03/03 06:40:57;;;;;;;79.35;43.40;;;1.70;99.90;;;;;;5089558;28;20078;-85
2022/03/03 06:43:24;;;;;;;80.40;41.70;;;1.70;99.90;;;;;;5090622;28;20050;-85
2022/03/03 06:45:50;;;;;;;76.25;42.05;;;1.70;99.90;;;;;;5073813;28;20119;-84
2022/03/03 06:48:16;;;;;;;78.72;43.92;;;1.70;99.90;;;;;;5085656;28;20043;-83
2022/03/03 06:50:42;;;;;;;72.90;41.17;;;1.70;99.90;;;;;;5094708;28;20081;-83
2022/03/03 06:53:09;;;;;;;82.75;42.33;;;1.70;99.90;;;;;;5109721;28;20447;-83
2022/03/03 06:55:36;;;;;;;80.72;42.97;;;1.80;99.90;;;;;;5107297;28;20047;-80
2022/03/03 06:58:02;;;;;;;81.00;42.38;;;1.80;99.90;;;;;;5088761;28;20043;-85
2022/03/03 07:00:32;;;;;;;81.13;42.60;;;1.80;99.90;;;;;;5088663;28;20044;-85
2022/03/03 07:02:59;;;;;;;81.30;43.30;;;1.80;99.90;;;;;;5089063;28;20065;-85
2022/03/03 07:05:27;;;;;;;79.47;43.08;;;1.90;99.90;;;;;;5071477;28;20483;-85
2022/03/03 07:07:54;;;;;;;85.70;44.25;;;1.90;99.90;;;;;;5088616;28;20051;-86
2022/03/03 07:10:25;;;;;;;76.25;40.47;;;1.90;99.90;;;;;;5088304;28;20055;-85
2022/03/03 07:12:53;;;;;;;84.55;42.22;;;2.00;99.90;;;;;;5088736;28;20043;-85
2022/03/03 07:15:20;;;;;;;93.40;41.25;;;2.00;99.90;;;;;;5091951;28;20046;-85
2022/03/03 07:17:53;;;;;;;83.18;40.95;;;2.00;99.90;;;;;;5092070;28;20089;-86
2022/03/03 07:20:45;;;;;;;75.07;42.55;;;2.00;99.90;;;;;;5074955;28;20048;-85
2022/03/03 07:23:21;;;;;;;73.13;40.47;;;2.10;99.90;;;;;;5075354;28;20051;-85
2022/03/03 07:25:51;;;;;;;71.05;38.05;;;2.10;99.90;;;;;;5092108;28;20043;-85
2022/03/03 07:28:20;;;;;;;77.15;42.13;;;2.10;99.90;;;;;;5092313;28;20062;-85
2022/03/03 07:30:49;;;;;;;77.13;41.35;;;2.20;99.90;;;;;;5078892;28;20409;-85
2022/03/03 07:33:19;;;;;;;74.15;41.00;;;2.30;99.90;;;;;;5095375;28;20043;-85
2022/03/03 07:35:47;;;;;;;75.70;41.65;;;2.30;99.90;;;;;;5078093;28;20061;-84
2022/03/03 07:38:15;;;;;;;74.07;42.78;;;2.30;99.90;;;;;;5095498;28;20436;-84
2022/03/03 07:40:42;;;;;;;80.18;43.63;;;2.30;99.90;;;;;;5095185;28;20130;-86
2022/03/03 07:43:12;;;;;;;79.00;42.85;;;2.40;99.90;;;;;;5095154;28;20044;-85
2022/03/03 07:45:39;;;;;;;84.43;44.65;;;2.40;99.90;;;;;;5095402;28;20618;-85
2022/03/03 07:48:05;;;;;;;81.25;44.17;;;2.40;99.90;;;;;;5095119;28;20079;-87
2022/03/03 07:50:30;;;;;;;80.45;44.80;;;2.40;99.90;;;;;;5077917;28;20135;-85
2022/03/03 07:52:57;;;;;;;74.68;42.38;;;2.50;99.90;;;;;;5094908;28;20136;-85
2022/03/03 07:55:23;;;;;;;76.80;42.35;;;2.50;99.90;;;;;;5095160;28;20040;-85
2022/03/03 07:58:00;;;;;;;76.75;43.10;;;2.60;99.90;;;;;;5095093;28;20382;-85
2022/03/03 08:00:31;;;;;;;75.28;42.50;;;2.60;99.90;;;;;;5094720;28;20047;-85
2022/03/03 08:03:05;;;;;;;69.28;38.63;;;2.60;99.90;;;;;;5094486;28;20043;-85
2022/03/03 08:05:31;;;;;;;65.32;37.17;;;2.70;99.90;;;;;;5078200;28;20051;-85
2022/03/03 08:08:00;;;;;;;63.70;39.47;;;2.80;99.90;;;;;;5077490;28;20048;-85
2022/03/03 08:10:27;;;;;;;63.28;37.92;;;2.80;99.90;;;;;;5094989;28;20120;-85
2022/03/03 08:12:57;;;;;;;64.45;38.70;;;2.80;99.90;;;;;;5094143;28;20047;-85
2022/03/03 08:15:24;;;;;;;64.53;36.67;;;2.90;99.90;;;;;;5094116;28;20051;-85
2022/03/03 08:17:52;;;;;;;66.88;37.70;;;2.90;99.90;;;;;;5095016;28;20115;-85
2022/03/03 08:20:18;;;;;;;61.83;37.03;;;2.90;99.90;;;;;;5077405;28;20520;-85
2022/03/03 08:22:44;;;;;;;71.53;35.95;;;3.00;99.90;;;;;;5094446;28;20546;-85
2022/03/03 08:25:11;;;;;;;64.72;36.67;;;3.00;99.90;;;;;;5077389;28;20043;-85
2022/03/03 08:27:37;;;;;;;65.00;37.28;;;3.10;99.90;;;;;;5094330;28;20054;-85
2022/03/03 08:30:05;;;;;;;62.70;35.63;;;3.10;99.90;;;;;;5090541;28;20147;-85
2022/03/03 08:32:57;;;;;;;61.22;35.58;;;3.20;99.90;;;;;;5074168;28;20795;-85
2022/03/03 08:35:27;;;;;;;62.58;36.25;;;3.20;99.90;;;;;;5090803;28;20051;-85
2022/03/03 08:38:05;;;;;;;64.43;36.92;;;3.20;99.90;;;;;;5072641;28;20135;-85
2022/03/03 08:40:31;;;;;;;62.92;36.38;;;3.30;99.90;;;;;;5053736;28;20090;-85
2022/03/03 08:43:00;;;;;;;65.15;37.85;;;3.30;99.90;;;;;;5069981;28;20044;-85
2022/03/03 08:45:29;;;;;;;67.88;37.10;;;3.30;99.90;;;;;;5070209;28;20037;-85
2022/03/03 08:48:01;;;;;;;61.55;37.38;;;3.40;99.90;;;;;;5053359;28;20558;-85
2022/03/03 08:50:28;;;;;;;59.47;37.13;;;3.40;99.90;;;;;;5069567;28;20048;-85
2022/03/03 08:52:58;;;;;;;64.80;39.28;;;3.40;99.90;;;;;;5070049;28;20138;-85
2022/03/03 08:55:25;;;;;;;67.15;37.92;;;3.50;99.90;;;;;;5070131;28;20040;-85
2022/03/03 08:57:51;;;;;;;64.93;37.45;;;3.60;99.90;;;;;;5053718;28;20054;-85
2022/03/03 09:00:17;;;;;;;59.67;35.97;;;3.70;99.90;;;;;;5053487;28;20048;-86
2022/03/03 09:02:43;;;;;;;65.07;38.28;;;3.70;99.90;;;;;;5069911;28;20059;-85
2022/03/03 09:05:11;;;;;;;65.38;39.63;;;3.80;99.90;;;;;;5069894;28;20040;-85
2022/03/03 09:07:38;;;;;;;58.90;36.15;;;3.80;99.90;;;;;;5053446;28;20040;-86
2022/03/03 09:10:04;;;;;;;;;;;3.90;99.90;;;;;;5053695;28;20083;-86
2022/03/03 09:12:30;;;;;;;;;;;3.90;99.90;;;;;;5071132;28;20401;-86
2022/03/03 09:14:55;;;;;;;;;;;4.00;99.90;;;;;;5070423;28;19924;-86
2022/03/03 09:17:21;;;;;;;;;;;4.00;99.90;;;;;;5054461;28;19920;-86
2022/03/03 09:19:47;;;;;;;;;;;4.10;99.90;;;;;;5070166;28;19983;-86
2022/03/03 09:22:13;;;;;;;;;;;4.10;99.90;;;;;;5054290;28;19920;-86
2022/03/03 09:24:38;;;;;;;;;;;4.30;99.90;;;;;;5070629;28;20492;-86
2022/03/03 09:27:04;;;;;;;;;;;5.20;99.90;;;;;;5070213;28;19927;-86
2022/03/03 09:29:33;;;;;;;;;;;6.30;99.90;;;;;;5081531;28;20401;-86
2022/03/03 09:32:02;;;;;;;;;;;7.50;99.90;;;;;;5090770;28;20038;-87
2022/03/03 09:34:28;;;;;;;;;;;8.60;99.90;;;;;;5073709;28;19920;-86
2022/03/03 09:36:57;;;;;;;;;;;9.50;99.90;;;;;;5072873;28;20259;-86
2022/03/03 09:39:23;;;;;;;;;;;10.20;99.90;;;;;;5073407;28;19923;-86
2022/03/03 09:41:50;;;;;;;;;;;10.70;99.90;;;;;;5073643;28;19920;-86
2022/03/03 09:44:19;;;;;;;;;;;11.20;99.90;;;;;;5090858;28;19960;-87
2022/03/03 09:46:45;;;;;;;;;;;11.60;96.30;;;;;;5090539;28;19920;-87
2022/03/03 09:49:10;;;;;;;;;;;12.00;94.10;;;;;;5090419;28;20293;-87
2022/03/03 09:51:36;;;;;;;;;;;12.10;90.60;;;;;;5073477;28;20343;-86
2022/03/03 09:54:01;;;;;;;;;;;12.30;89.00;;;;;;5089800;28;19927;-87
2022/03/03 09:56:27;;;;;;;;;;;12.60;91.30;;;;;;5090314;28;20418;-87
2022/03/03 09:58:52;;;;;;;;;;;13.10;89.60;;;;;;5089675;28;19920;-87
2022/03/03 10:01:18;;;;;;;;;;;13.50;83.00;;;;;;5073309;28;20003;-87
2022/03/03 10:03:47;;;;;;;;;;;13.70;81.70;;;;;;5073111;28;20007;-86
2022/03/03 10:06:13;;;;;;;;;;;13.90;80.90;;;;;;5073370;28;19923;-87
2022/03/03 10:08:38;;;;;;;;;;;14.10;75.60;;;;;;5089449;28;19920;-87
2022/03/03 10:11:04;;;;;;;;;;;14.20;75.40;;;;;;5089695;28;19935;-87
2022/03/03 10:13:46;;;;;;;;;;;14.40;73.20;;;;;;5073490;28;20344;-87
2022/03/03 10:16:18;;;;;;;;;;;14.60;72.20;;;;;;5090264;28;19920;-86
2022/03/03 10:18:48;;;;;;;;;;;14.80;68.80;;;;;;5089947;28;20019;-87
2022/03/03 10:21:14;;;;;;;;;;;15.00;72.20;;;;;;5072955;28;19973;-87
2022/03/03 10:23:39;;;;;;;;;;;14.90;72.70;;;;;;5090101;28;20366;-87
2022/03/03 10:26:06;;;;;;;;;;;14.70;72.50;;;;;;5090042;28;19981;-87
2022/03/03 10:28:33;;;;;;;;;;;14.70;77.00;;;;;;5075474;28;19920;-87
2022/03/03 10:31:01;;;;;;;;;;;14.70;74.00;;;;;;5092843;28;20424;-87
2022/03/03 10:33:31;;;;;;;;;;;14.70;73.20;;;;;;5093428;28;19923;-87
2022/03/03 10:36:01;;;;;;;;;;;14.70;71.60;;;;;;5093005;28;20027;-87
2022/03/03 10:38:26;;;;;;;;;;;14.80;72.50;;;;;;5089664;28;19928;-87
2022/03/03 10:40:52;;;;;;;;;;;14.80;70.90;;;;;;5072909;28;20289;-86
2022/03/03 10:43:18;;;;;;;;;;;14.80;67.90;;;;;;5089237;28;19973;-87
2022/03/03 10:45:54;;;;;;;;;;;14.80;70.10;;;;;;5089833;28;19920;-87
2022/03/03 10:48:24;;;;;;;;;;;14.60;69.00;;;;;;5092003;28;19920;-87
2022/03/03 10:50:50;;;;;;;;;;;14.60;69.40;;;;;;5093949;28;19968;-87
2022/03/03 10:53:17;;;;;;;;;;;14.70;69.40;;;;;;5077375;28;20011;-86
2022/03/03 10:55:58;;;;;;;;;;;14.70;68.90;;;;;;5093818;28;19920;-87
2022/03/03 10:58:42;;;;;;;;;;;14.90;70.20;;;;;;5093907;28;19920;-87
2022/03/03 11:01:08;;;;;;;;;;;15.20;68.80;;;;;;5076132;28;19920;-87
2022/03/03 11:03:35;;;;;;;;;;;15.30;68.40;;;;;;5093168;28;19920;-86
2022/03/03 11:06:02;;;;;;;;;;;15.10;63.70;;;;;;5093562;28;20010;-86
2022/03/03 11:08:27;;;;;;;;;;;14.80;64.60;;;;;;5093771;28;19920;-87
2022/03/03 11:10:53;;;;;;;;;;;14.70;63.00;;;;;;5093780;28;19920;-87
2022/03/03 11:13:18;;;;;;;;;;;14.60;64.10;;;;;;5093846;28;19920;-86
2022/03/03 11:15:44;;;;;;;;;;;14.80;66.20;;;;;;5093502;28;19965;-87
2022/03/03 11:18:09;;;;;;;;;;;14.70;64.40;;;;;;5093168;28;19930;-87
2022/03/03 11:20:35;;;;;;;;;;;14.80;63.50;;;;;;5093327;28;20255;-87
2022/03/03 11:23:01;;;;;;;;;;;14.90;64.20;;;;;;5076366;28;19919;-87
2022/03/03 11:25:29;;;;;;;;;;;14.90;63.70;;;;;;5094243;28;20294;-87
2022/03/03 11:28:05;;;;;;;;;;;15.10;63.40;;;;;;5081364;28;20354;-85
2022/03/03 11:30:31;;;;;;;;;;;14.80;62.20;;;;;;5093210;28;19935;-85
2022/03/03 11:33:17;;;;;;;34.60;29.00;;;15.00;64.20;;;;;;5092304;28;19924;-85
2022/03/03 11:35:53;;;;;;;35.72;27.85;;;15.10;64.30;;;;;;5064768;28;20101;-85
2022/03/03 11:38:20;;;;;;;33.25;28.42;;;15.30;62.40;;;;;;5095165;28;20074;-85
2022/03/03 11:41:04;;;;;;;34.55;28.55;;;15.40;63.00;;;;;;5095233;28;20449;-85
2022/03/03 11:43:48;;;;;;;35.88;28.98;;;15.50;61.70;;;;;;5078507;28;20133;-85
2022/03/03 11:46:13;;;;;;;;;;;15.80;62.20;;;;;;5095881;28;20521;-85
2022/03/03 11:48:39;;;;;;;;;;;16.10;62.20;;;;;;5079312;28;19919;-86
2022/03/03 11:51:30;;;;;;;;;;;16.30;60.70;;;;;;5095540;28;19920;-86
2022/03/03 11:54:05;;;;;;;;;;;16.30;58.60;;;;;;5079291;28;19923;-86
2022/03/03 11:56:31;;;;;;;;;;;16.40;58.60;;;;;;5079441;28;19966;-86
2022/03/03 11:59:10;;;;;;;;;;;16.30;55.80;;;;;;5095176;28;20069;-85
2022/03/03 12:01:55;;;;;;;;;;;16.30;56.70;;;;;;5096210;28;19920;-85
2022/03/03 12:04:25;;;;;;;;;;;16.40;58.30;;;;;;5096104;28;20312;-85
2022/03/03 12:06:51;;;;;;;30.55;25.13;;;16.60;57.60;;;;;;5096754;28;19926;-85
2022/03/03 12:09:18;;;;;;;31.23;26.15;;;16.80;54.60;;;;;;5077791;28;20071;-85
2022/03/03 12:11:44;;;;;;;29.77;25.17;;;16.80;55.50;;;;;;5078101;28;20408;-85
2022/03/03 12:14:35;;;;;;;28.70;25.48;;;16.90;56.20;;;;;;5077709;28;20126;-86
2022/03/03 12:17:36;;;;;;;30.02;25.65;;;17.00;55.20;;;;;;5094005;28;20043;-86
2022/03/03 12:20:23;;;;;;;32.20;26.20;;;17.00;55.80;;;;;;5094542;28;20056;-86
2022/03/03 12:23:11;;;;;;;29.05;24.73;;;17.30;55.60;;;;;;5077316;28;20092;-86
2022/03/03 12:25:58;;;;;;;28.40;24.30;;;17.20;54.20;;;;;;5077480;28;20459;-86
2022/03/03 12:28:25;;;;;;;29.52;24.88;;;17.20;55.10;;;;;;5077132;28;20436;-86
2022/03/03 12:30:51;;;;;;;;;;;17.50;55.70;;;;;;5094282;28;20052;-86
2022/03/03 12:33:22;;;;;;;;;;;17.90;54.70;;;;;;5078463;28;19919;-86
2022/03/03 12:35:48;;;;;;;;;;;18.20;53.50;;;;;;5094760;28;19920;-86
2022/03/03 12:38:13;;;;;;;;;;;18.20;54.40;;;;;;5074790;28;19969;-86
2022/03/03 12:40:39;;;;;;;;;;;18.20;53.40;;;;;;5074453;28;19923;-86
2022/03/03 12:43:16;;;;;;;;;;;18.20;51.50;;;;;;5091323;28;19920;-86
2022/03/03 12:45:42;;;;;;;;;;;18.30;51.70;;;;;;5091194;28;20018;-86
2022/03/03 12:48:08;;;;;;;;;;;18.30;48.30;;;;;;5091722;28;19942;-86
2022/03/03 12:50:35;;;;;;;;;;;18.20;51.50;;;;;;5074781;28;20321;-86
2022/03/03 12:53:01;;;;;;;;;;;18.30;48.90;;;;;;5090787;28;19920;-85
2022/03/03 12:55:28;;;;;;;;;;;18.20;51.80;;;;;;5091546;28;20298;-86
2022/03/03 12:57:55;;;;;;;;;;;18.20;48.80;;;;;;5074405;28;20402;-86
2022/03/03 13:00:21;;;;;;;;;;;18.20;50.90;;;;;;5091098;28;19976;-85
2022/03/03 13:02:50;;;;;;;;;;;18.20;50.50;;;;;;5092053;28;19924;-86
2022/03/03 13:05:31;;;;;;;;;;;18.20;51.00;;;;;;5091063;28;19924;-85